Time;durP1;ratioP1;P1;durP2;ratioP2;P2;SDS_P1;SDS_P2;PMS_P1;PMS_P2;Temp;Humidity;BMP_temperature;BMP_pressure;BME280_temperature;BME280_humidity;BME280_pressure;Samples;Min_cycle;Max_cycle;Signal;HPM_P1;HPM_P2
2021/07/20 00:02:37;;;;;;;4.25;3.80;;;25.70;42.20;;;;;;5053236;28;20031;-64
2021/07/20 00:05:05;;;;;;;4.85;4.30;;;25.70;42.20;;;;;;5050862;28;20112;-61
2021/07/20 00:07:31;;;;;;;5.03;4.20;;;25.70;42.30;;;;;;5053230;28;20048;-65
2021/07/20 00:09:57;;;;;;;5.05;4.53;;;25.70;42.20;;;;;;5053229;28;20063;-64
2021/07/20 00:12:23;;;;;;;5.20;4.43;;;25.60;42.20;;;;;;5035913;28;20115;-64
2021/07/20 00:14:49;;;;;;;5.85;4.40;;;25.70;42.20;;;;;;5053679;28;20129;-62
2021/07/20 00:17:14;;;;;;;5.13;4.30;;;25.60;42.20;;;;;;5053328;28;20035;-64
2021/07/20 00:19:40;;;;;;;6.07;4.03;;;25.70;42.20;;;;;;5053015;28;20586;-62
2021/07/20 00:22:06;;;;;;;5.30;4.35;;;25.70;42.20;;;;;;5051319;28;20032;-64
2021/07/20 00:24:32;;;;;;;4.35;3.80;;;25.60;42.20;;;;;;5053624;28;20025;-67
2021/07/20 00:26:58;;;;;;;5.22;4.30;;;25.60;42.20;;;;;;5052100;28;20051;-63
2021/07/20 00:29:23;;;;;;;5.20;4.25;;;25.60;42.20;;;;;;5052961;28;20031;-64
2021/07/20 00:31:49;;;;;;;4.70;4.20;;;25.60;42.20;;;;;;5052727;28;20061;-63
2021/07/20 00:34:15;;;;;;;4.70;4.15;;;25.60;42.20;;;;;;5035265;28;20090;-65
2021/07/20 00:36:41;;;;;;;4.90;4.18;;;25.60;42.30;;;;;;5052551;28;20033;-63
2021/07/20 00:39:07;;;;;;;5.07;4.35;;;25.60;42.30;;;;;;5052940;28;20021;-62
2021/07/20 00:41:34;;;;;;;4.97;4.32;;;25.60;42.30;;;;;;5052339;28;20025;-64
2021/07/20 00:44:02;;;;;;;5.03;4.53;;;25.60;42.30;;;;;;5035065;28;20032;-63
2021/07/20 00:46:27;;;;;;;5.22;4.63;;;25.60;42.30;;;;;;5052420;28;20037;-62
2021/07/20 00:48:54;;;;;;;5.70;4.78;;;25.60;42.30;;;;;;5053041;28;20071;-63
2021/07/20 00:51:27;;;;;;;5.40;4.40;;;25.50;42.30;;;;;;5033832;28;20066;-63
2021/07/20 00:53:53;;;;;;;5.32;4.80;;;25.50;42.30;;;;;;5034466;28;20108;-63
2021/07/20 00:56:26;;;;;;;5.90;4.32;;;25.50;42.30;;;;;;5051963;28;20033;-63
2021/07/20 00:58:54;;;;;;;5.65;4.78;;;25.50;42.40;;;;;;5034837;28;20040;-63
2021/07/20 01:01:21;;;;;;;5.63;4.35;;;25.50;42.40;;;;;;5052058;28;20464;-61
2021/07/20 01:03:51;;;;;;;5.55;4.65;;;25.50;42.40;;;;;;5033936;28;20021;-65
2021/07/20 01:06:24;;;;;;;4.90;4.18;;;25.40;42.40;;;;;;5033783;28;20049;-64
2021/07/20 01:08:51;;;;;;;5.55;4.72;;;25.40;42.40;;;;;;5034066;28;20342;-62
2021/07/20 01:11:21;;;;;;;4.68;4.18;;;25.40;42.40;;;;;;5051310;28;20349;-63
2021/07/20 01:13:49;;;;;;;6.97;4.85;;;25.40;42.50;;;;;;5034548;28;20460;-61
2021/07/20 01:16:15;;;;;;;5.82;5.03;;;25.40;42.60;;;;;;5034416;28;20107;-63
2021/07/20 01:18:42;;;;;;;5.80;4.45;;;25.40;42.50;;;;;;5034194;28;20033;-62
2021/07/20 01:21:13;;;;;;;4.97;4.30;;;25.40;42.50;;;;;;5052694;28;20040;-61
2021/07/20 01:23:46;;;;;;;5.55;4.45;;;25.40;42.60;;;;;;5033479;28;20025;-60
2021/07/20 01:26:15;;;;;;;5.43;4.47;;;25.40;42.60;;;;;;5032542;28;20036;-61
2021/07/20 01:28:41;;;;;;;5.43;4.43;;;25.40;42.60;;;;;;5052375;28;20350;-64
2021/07/20 01:31:16;;;;;;;5.75;4.20;;;25.40;42.70;;;;;;5034234;28;20020;-63
2021/07/20 01:33:48;;;;;;;5.22;4.40;;;25.30;42.70;;;;;;5032279;28;20056;-63
2021/07/20 01:36:21;;;;;;;4.93;4.13;;;25.30;42.70;;;;;;5034736;28;20486;-65
2021/07/20 01:38:51;;;;;;;4.72;3.80;;;25.30;42.70;;;;;;5050260;28;20056;-63
2021/07/20 01:41:18;;;;;;;5.88;4.75;;;25.30;42.70;;;;;;5033429;28;20037;-63
2021/07/20 01:43:51;;;;;;;5.57;4.43;;;25.30;42.70;;;;;;5034044;28;20080;-66
2021/07/20 01:46:20;;;;;;;5.05;4.45;;;25.30;42.70;;;;;;5032227;28;20099;-64
2021/07/20 01:48:50;;;;;;;5.65;4.75;;;25.30;42.80;;;;;;5033699;28;20033;-64
2021/07/20 01:51:20;;;;;;;4.88;4.30;;;25.20;42.70;;;;;;5034010;28;20341;-63
2021/07/20 01:53:48;;;;;;;6.03;4.68;;;25.20;42.70;;;;;;5034131;28;20040;-62
2021/07/20 01:56:15;;;;;;;4.75;4.25;;;25.20;42.70;;;;;;5033596;28;20032;-62
2021/07/20 01:58:42;;;;;;;6.05;4.60;;;25.20;42.70;;;;;;5017028;28;20690;-63
2021/07/20 02:01:51;;;;;;;5.22;4.45;;;25.20;42.70;;;;;;5033969;28;20116;-63
2021/07/20 02:04:50;;;;;;;5.03;4.13;;;25.20;42.80;;;;;;5033897;28;20424;-62
2021/07/20 02:10:08;;;;;;;5.47;4.45;;;25.10;42.80;;;;;;5035251;28;20106;-62
2021/07/20 02:12:50;;;;;;;6.22;4.72;;;25.10;42.80;;;;;;5037094;28;20037;-65
2021/07/20 02:15:48;;;;;;;5.35;4.60;;;25.10;42.80;;;;;;5042757;28;20368;-62
2021/07/20 02:18:34;;;;;;;5.68;4.90;;;25.10;42.90;;;;;;5054522;28;20051;-63
2021/07/20 02:21:10;;;;;;;4.40;3.85;;;25.10;42.90;;;;;;5055100;28;20033;-61
2021/07/20 02:23:40;;;;;;;6.55;5.05;;;25.10;42.90;;;;;;5036956;28;20033;-64
2021/07/20 02:26:08;;;;;;;5.60;4.78;;;25.10;42.90;;;;;;5054070;28;20356;-62
2021/07/20 02:28:36;;;;;;;5.68;4.50;;;25.10;42.90;;;;;;5037902;28;20040;-61
2021/07/20 02:31:04;;;;;;;5.65;4.80;;;25.10;42.80;;;;;;5036989;28;20401;-64
2021/07/20 02:33:36;;;;;;;5.20;4.53;;;25.10;42.90;;;;;;5037525;28;20090;-63
2021/07/20 02:36:06;;;;;;;7.25;4.78;;;25.10;42.80;;;;;;5036806;28;20125;-64
2021/07/20 02:38:41;;;;;;;6.13;5.05;;;25.00;42.80;;;;;;5054575;28;20044;-64
2021/07/20 02:41:13;;;;;;;4.88;4.38;;;25.10;42.80;;;;;;5035726;28;20021;-62
2021/07/20 02:43:46;;;;;;;5.45;4.68;;;25.00;42.80;;;;;;5037269;28;20021;-62
2021/07/20 02:46:13;;;;;;;6.00;4.93;;;25.00;42.80;;;;;;5036774;28;20037;-61
2021/07/20 02:48:43;;;;;;;5.82;5.07;;;25.00;42.80;;;;;;5037165;28;20036;-61
2021/07/20 02:51:13;;;;;;;6.43;5.10;;;25.00;42.80;;;;;;5037056;28;20389;-62
2021/07/20 02:53:44;;;;;;;6.00;5.00;;;25.00;42.80;;;;;;5036745;28;20029;-63
2021/07/20 02:56:14;;;;;;;5.30;4.68;;;25.00;42.80;;;;;;5036970;28;20032;-64
2021/07/20 02:58:51;;;;;;;5.53;4.93;;;25.00;42.70;;;;;;5037032;28;20029;-65
2021/07/20 03:01:27;;;;;;;6.43;4.93;;;25.00;42.70;;;;;;5054594;28;20452;-62
2021/07/20 03:03:55;;;;;;;5.22;4.63;;;25.00;42.80;;;;;;5036601;28;20025;-61
2021/07/20 03:06:29;;;;;;;5.65;5.03;;;24.90;42.70;;;;;;5034358;28;20041;-63
2021/07/20 03:09:03;;;;;;;5.57;5.00;;;24.90;42.70;;;;;;5036255;28;20052;-60
2021/07/20 03:11:43;;;;;;;6.82;5.10;;;24.90;42.70;;;;;;5053937;28;20334;-59
2021/07/20 03:14:13;;;;;;;5.55;4.68;;;24.90;42.70;;;;;;5034201;28;20029;-63
2021/07/20 03:16:49;;;;;;;6.13;5.03;;;24.90;42.70;;;;;;5036183;28;20653;-61
2021/07/20 03:19:19;;;;;;;5.40;4.43;;;24.90;42.70;;;;;;5017784;28;20098;-60
2021/07/20 03:21:51;;;;;;;5.47;4.88;;;24.90;42.70;;;;;;5054450;28;20106;-61
2021/07/20 03:24:22;;;;;;;6.13;5.13;;;24.90;42.70;;;;;;5036150;28;20132;-62
2021/07/20 03:26:52;;;;;;;5.55;4.75;;;24.90;42.70;;;;;;5054231;28;20467;-63
2021/07/20 03:29:22;;;;;;;5.82;4.90;;;24.90;42.80;;;;;;5035443;28;20072;-65
2021/07/20 03:31:51;;;;;;;6.03;5.05;;;24.90;42.70;;;;;;5036553;28;20025;-63
2021/07/20 03:34:20;;;;;;;5.70;4.82;;;24.80;42.70;;;;;;5036590;28;20091;-64
2021/07/20 03:36:49;;;;;;;5.47;4.70;;;24.80;42.70;;;;;;5035790;28;20028;-63
2021/07/20 03:39:18;;;;;;;6.22;5.45;;;24.80;42.70;;;;;;5019640;28;20033;-62
2021/07/20 03:41:46;;;;;;;5.50;4.85;;;24.80;42.70;;;;;;5052059;28;20479;-63
2021/07/20 03:44:14;;;;;;;5.63;4.90;;;24.80;42.70;;;;;;5034339;28;20021;-62
2021/07/20 03:46:42;;;;;;;6.13;4.65;;;24.80;42.70;;;;;;5035385;28;20028;-60
2021/07/20 03:49:08;;;;;;;7.00;5.32;;;24.80;42.70;;;;;;5036100;28;20021;-61
2021/07/20 03:51:42;;;;;;;6.15;5.38;;;24.80;42.70;;;;;;5033542;28;20426;-62
2021/07/20 03:54:09;;;;;;;6.72;5.22;;;24.80;42.80;;;;;;5035852;28;20035;-61
2021/07/20 03:56:39;;;;;;;6.20;4.90;;;24.80;42.80;;;;;;5035468;28;20033;-63
2021/07/20 03:59:09;;;;;;;6.20;5.22;;;24.80;42.80;;;;;;5034057;28;20159;-61
2021/07/20 04:01:58;;;;;;;5.60;4.80;;;24.80;42.80;;;;;;5053678;28;20033;-64
2021/07/20 04:04:29;;;;;;;6.40;5.00;;;24.70;42.80;;;;;;5035546;28;20032;-63
2021/07/20 04:07:13;;;;;;;5.40;4.40;;;24.80;42.80;;;;;;5019349;28;20461;-63
2021/07/20 04:10:01;;;;;;;5.57;4.50;;;24.70;42.80;;;;;;5052792;28;20522;-63
2021/07/20 04:12:47;;;;;;;5.97;5.15;;;24.80;42.90;;;;;;5053363;28;20035;-63
2021/07/20 04:15:33;;;;;;;5.35;4.35;;;24.70;42.80;;;;;;5016853;28;20032;-61
2021/07/20 04:18:08;;;;;;;5.18;4.40;;;24.70;42.80;;;;;;5035365;28;20041;-63
2021/07/20 04:20:36;;;;;;;5.65;4.80;;;24.70;42.80;;;;;;5052854;28;20075;-62
2021/07/20 04:23:03;;;;;;;5.45;4.53;;;24.70;42.80;;;;;;5052551;28;20035;-61
2021/07/20 04:25:37;;;;;;;5.78;4.38;;;24.70;42.80;;;;;;5035224;28;20029;-63
2021/07/20 04:28:07;;;;;;;5.55;4.95;;;24.70;42.80;;;;;;5034332;28;20396;-61
2021/07/20 04:30:37;;;;;;;6.22;5.20;;;24.70;42.80;;;;;;5035134;28;20444;-60
2021/07/20 04:33:04;;;;;;;5.38;4.38;;;24.70;42.80;;;;;;5034900;28;20025;-60
2021/07/20 04:35:47;;;;;;;6.25;5.25;;;24.70;42.80;;;;;;5035282;28;20090;-60
2021/07/20 04:38:15;;;;;;;6.00;4.70;;;24.70;42.80;;;;;;5034442;28;20873;-61
2021/07/20 04:40:42;;;;;;;5.05;4.13;;;24.70;42.70;;;;;;5034711;28;20483;-63
2021/07/20 04:43:08;;;;;;;5.03;4.20;;;24.70;42.80;;;;;;5052605;28;20029;-62
2021/07/20 04:45:35;;;;;;;6.00;4.60;;;24.70;42.80;;;;;;5053104;28;20021;-60
2021/07/20 04:48:08;;;;;;;5.35;4.60;;;24.70;42.70;;;;;;5051876;28;21664;-59
2021/07/20 04:50:42;;;;;;;6.85;5.05;;;24.70;42.70;;;;;;5052497;28;20025;-62
2021/07/20 04:53:13;;;;;;;6.60;5.10;;;24.70;42.70;;;;;;5035008;28;20321;-63
2021/07/20 04:55:48;;;;;;;4.85;4.22;;;24.70;42.70;;;;;;5050532;28;20029;-60
2021/07/20 04:58:15;;;;;;;5.75;4.68;;;24.70;42.70;;;;;;5034793;28;20365;-63
2021/07/20 05:00:44;;;;;;;4.97;4.47;;;24.70;42.70;;;;;;5051453;28;20036;-63
2021/07/20 05:03:12;;;;;;;4.32;3.92;;;24.70;42.70;;;;;;5033041;28;20032;-61
2021/07/20 05:05:40;;;;;;;5.00;4.20;;;24.70;42.70;;;;;;5030497;28;20373;-62
2021/07/20 05:08:13;;;;;;;5.15;4.07;;;24.70;42.70;;;;;;5028289;28;20107;-63
2021/07/20 05:10:50;;;;;;;5.32;4.50;;;24.70;42.70;;;;;;5028661;28;20018;-59
2021/07/20 05:13:31;;;;;;;4.90;4.20;;;24.70;42.60;;;;;;5030566;28;20090;-61
2021/07/20 05:16:01;;;;;;;5.30;4.13;;;24.70;42.60;;;;;;5032487;28;20132;-60
2021/07/20 05:18:45;;;;;;;4.90;4.13;;;24.70;42.60;;;;;;5031625;28;20052;-62
2021/07/20 05:21:33;;;;;;;4.40;3.72;;;24.70;42.60;;;;;;5028490;28;20048;-63
2021/07/20 05:24:00;;;;;;;4.47;3.78;;;24.70;42.60;;;;;;5030617;28;20029;-62
2021/07/20 05:26:45;;;;;;;4.78;4.03;;;24.70;42.60;;;;;;5028854;28;20057;-62
2021/07/20 05:29:17;;;;;;;4.72;3.95;;;24.70;42.50;;;;;;5030674;28;20115;-62
2021/07/20 05:31:54;;;;;;;5.43;4.50;;;24.70;42.50;;;;;;5026017;28;20334;-63
2021/07/20 05:34:21;;;;;;;5.60;4.50;;;24.70;42.50;;;;;;5030857;28;20043;-63
2021/07/20 05:36:48;;;;;;;4.72;3.88;;;24.70;42.50;;;;;;5030550;28;20515;-63
2021/07/20 05:39:17;;;;;;;4.75;3.90;;;24.70;42.50;;;;;;5033040;28;20021;-64
2021/07/20 05:41:53;;;;;;;5.30;4.20;;;24.70;42.50;;;;;;5034714;28;20025;-61
2021/07/20 05:44:22;;;;;;;4.47;4.00;;;24.70;42.50;;;;;;5034514;28;20111;-62
2021/07/20 05:46:48;;;;;;;5.80;3.97;;;24.70;42.50;;;;;;5034891;28;20095;-62
2021/07/20 05:49:15;;;;;;;5.05;4.03;;;24.70;42.50;;;;;;5035567;28;20113;-65
2021/07/20 05:51:42;;;;;;;3.92;3.47;;;24.70;43.10;;;;;;5035643;28;20026;-62
2021/07/20 05:54:13;;;;;;;5.68;4.43;;;24.70;43.10;;;;;;5034473;28;20404;-61
2021/07/20 05:56:56;;;;;;;4.50;3.97;;;24.70;42.40;;;;;;5034562;28;20124;-66
2021/07/20 05:59:43;;;;;;;4.35;3.67;;;24.70;42.40;;;;;;5034660;28;20026;-63
2021/07/20 06:02:24;;;;;;;4.35;3.60;;;24.70;42.40;;;;;;5033688;28;20057;-61
2021/07/20 06:04:51;;;;;;;4.38;3.58;;;24.70;42.40;;;;;;5034601;28;20108;-60
2021/07/20 06:07:18;;;;;;;4.20;3.67;;;24.70;42.40;;;;;;5053541;28;20124;-62
2021/07/20 06:09:46;;;;;;;4.07;3.60;;;24.70;42.40;;;;;;5055014;28;20433;-61
2021/07/20 06:12:16;;;;;;;3.95;3.28;;;24.70;42.30;;;;;;5037748;28;20068;-63
2021/07/20 06:14:43;;;;;;;4.68;3.85;;;24.70;42.30;;;;;;5055517;28;20067;-63
2021/07/20 06:17:09;;;;;;;3.92;3.08;;;24.70;42.30;;;;;;5055625;28;20021;-61
2021/07/20 06:19:37;;;;;;;5.07;4.13;;;24.70;42.30;;;;;;5054935;28;20095;-62
2021/07/20 06:22:07;;;;;;;4.50;3.70;;;24.70;42.30;;;;;;5036171;28;20054;-62
2021/07/20 06:24:45;;;;;;;4.18;3.45;;;24.80;42.30;;;;;;5037296;28;20028;-61
2021/07/20 06:27:13;;;;;;;3.95;3.55;;;24.80;42.30;;;;;;5036832;28;20108;-62
2021/07/20 06:29:42;;;;;;;4.70;3.75;;;24.80;42.30;;;;;;5055365;28;20373;-60
2021/07/20 06:32:10;;;;;;;4.90;3.80;;;24.80;42.20;;;;;;5054660;28;20036;-60
2021/07/20 06:34:38;;;;;;;4.05;3.47;;;24.70;42.10;;;;;;5055083;28;20033;-58
2021/07/20 06:37:04;;;;;;;4.05;3.13;;;24.80;42.10;;;;;;5055422;28;20055;-61
2021/07/20 06:39:31;;;;;;;4.28;3.60;;;24.70;42.00;;;;;;5052400;28;20108;-61
2021/07/20 06:42:01;;;;;;;3.63;3.08;;;24.80;42.00;;;;;;5052064;28;20033;-61
2021/07/20 06:44:28;;;;;;;4.50;3.90;;;24.80;42.10;;;;;;5054670;28;20029;-61
2021/07/20 06:46:55;;;;;;;4.45;3.47;;;24.80;42.10;;;;;;5054584;28;20111;-61
2021/07/20 06:49:21;;;;;;;7.72;3.72;;;24.80;42.20;;;;;;5054976;28;20056;-64
2021/07/20 06:51:48;;;;;;;5.78;3.65;;;24.80;42.20;;;;;;5051850;28;20029;-64
2021/07/20 06:54:15;;;;;;;4.40;3.60;;;24.90;42.20;;;;;;5054549;28;20029;-61
2021/07/20 06:56:48;;;;;;;5.78;4.30;;;24.90;42.20;;;;;;5054392;28;20056;-62
2021/07/20 06:59:15;;;;;;;4.70;3.78;;;25.00;42.20;;;;;;5050182;28;20090;-63
2021/07/20 07:01:42;;;;;;;4.97;3.78;;;25.00;42.20;;;;;;5049746;28;20022;-64
2021/07/20 07:04:16;;;;;;;5.78;4.15;;;25.00;42.10;;;;;;5054346;28;20079;-64
2021/07/20 07:06:46;;;;;;;4.68;3.75;;;25.10;42.10;;;;;;5036704;28;20049;-65
2021/07/20 07:09:13;;;;;;;4.35;3.70;;;25.10;42.00;;;;;;5036457;28;20433;-67
2021/07/20 07:11:40;;;;;;;4.35;3.72;;;25.10;41.90;;;;;;5054015;28;20060;-64
2021/07/20 07:14:09;;;;;;;4.80;4.18;;;25.10;41.80;;;;;;5054740;28;20385;-65
2021/07/20 07:16:37;;;;;;;7.07;4.13;;;25.20;41.80;;;;;;5055123;28;20039;-64
2021/07/20 07:19:03;;;;;;;5.03;3.97;;;25.20;41.60;;;;;;5054128;28;20025;-66
2021/07/20 07:21:30;;;;;;;5.05;4.32;;;25.20;41.50;;;;;;5034971;28;20453;-65
2021/07/20 07:23:58;;;;;;;6.05;3.85;;;25.20;41.50;;;;;;5035961;28;20024;-66
2021/07/20 07:26:24;;;;;;;5.10;4.03;;;25.30;41.50;;;;;;5053571;28;20045;-65
2021/07/20 07:28:52;;;;;;;5.63;4.32;;;25.30;41.40;;;;;;5035823;28;20033;-66
2021/07/20 07:31:19;;;;;;;4.60;3.97;;;25.30;41.30;;;;;;5054424;28;20021;-65
2021/07/20 07:33:46;;;;;;;5.18;4.20;;;25.30;41.20;;;;;;5035818;28;20050;-65
2021/07/20 07:36:16;;;;;;;4.85;3.78;;;25.30;41.10;;;;;;5053002;28;20029;-63
2021/07/20 07:38:46;;;;;;;6.07;4.65;;;25.40;41.10;;;;;;5053346;28;20049;-65
2021/07/20 07:41:12;;;;;;;4.70;4.00;;;25.40;41.00;;;;;;5051848;28;20029;-64
2021/07/20 07:43:40;;;;;;;4.43;3.72;;;25.30;40.80;;;;;;5053451;28;20044;-63
2021/07/20 07:46:07;;;;;;;5.25;4.13;;;25.40;40.80;;;;;;5051658;28;20041;-66
2021/07/20 07:48:37;;;;;;;5.60;4.35;;;25.40;40.70;;;;;;5053116;28;20143;-66
2021/07/20 07:51:07;;;;;;;5.57;4.65;;;25.40;40.60;;;;;;5036430;28;20102;-64
2021/07/20 07:53:35;;;;;;;5.00;4.45;;;25.40;40.50;;;;;;5050780;28;20025;-67
2021/07/20 07:56:02;;;;;;;4.57;3.65;;;25.40;40.50;;;;;;5051282;28;20125;-66
2021/07/20 07:58:29;;;;;;;5.13;4.03;;;25.50;40.50;;;;;;5034499;28;20037;-64
2021/07/20 08:00:59;;;;;;;5.80;4.60;;;25.40;40.30;;;;;;5050310;28;20090;-68
2021/07/20 08:03:39;;;;;;;4.72;3.75;;;25.50;40.30;;;;;;5051003;28;20037;-65
2021/07/20 08:06:07;;;;;;;4.90;3.90;;;25.50;40.20;;;;;;5051295;28;20056;-64
2021/07/20 08:08:35;;;;;;;5.10;3.97;;;25.50;40.20;;;;;;5053623;28;20047;-64
2021/07/20 08:11:04;;;;;;;5.25;4.15;;;25.50;40.10;;;;;;5054418;28;20433;-66
2021/07/20 08:13:31;;;;;;;5.70;4.10;;;25.50;40.00;;;;;;5054769;28;20747;-63
2021/07/20 08:15:58;;;;;;;5.35;4.45;;;25.50;40.00;;;;;;5053126;28;20309;-63
2021/07/20 08:18:25;;;;;;;4.30;3.72;;;25.50;39.90;;;;;;5051766;28;20056;-65
2021/07/20 08:21:00;;;;;;;4.43;3.63;;;25.60;39.90;;;;;;5054043;28;20041;-66
2021/07/20 08:23:25;;;;;;;4.43;3.85;;;25.60;39.80;;;;;;5050412;28;20126;-61
2021/07/20 08:25:53;;;;;;;4.65;4.03;;;25.60;39.80;;;;;;5054283;28;20056;-64
2021/07/20 08:28:45;;;;;;;4.78;3.78;;;25.60;39.70;;;;;;5054825;28;20151;-64
2021/07/20 08:31:14;;;;;;;4.35;3.67;;;25.60;39.60;;;;;;5043629;28;20329;-64
2021/07/20 08:33:43;;;;;;;4.72;3.60;;;25.60;39.60;;;;;;5037413;28;20028;-63
2021/07/20 08:36:11;;;;;;;4.28;3.45;;;25.60;39.50;;;;;;5036818;28;20119;-66
2021/07/20 08:38:39;;;;;;;4.22;3.63;;;25.60;39.40;;;;;;5054059;28;20360;-62
2021/07/20 08:41:47;;;;;;;4.60;3.58;;;25.60;39.40;;;;;;5054154;28;20029;-63
2021/07/20 08:44:43;;;;;;;4.20;3.50;;;25.60;39.30;;;;;;5035599;28;20036;-66
2021/07/20 08:47:15;;;;;;;4.10;3.58;;;25.60;39.30;;;;;;5034933;28;20041;-63
2021/07/20 08:50:11;;;;;;;5.28;4.05;;;25.60;39.30;;;;;;5044020;28;20021;-61
2021/07/20 08:52:59;;;;;;;4.00;3.33;;;25.60;39.20;;;;;;5054235;28;20063;-64
2021/07/20 08:55:28;;;;;;;4.78;4.10;;;25.60;39.10;;;;;;5053705;28;20028;-63
2021/07/20 08:57:57;;;;;;;3.95;3.40;;;25.60;39.10;;;;;;5054121;28;20029;-62
2021/07/20 09:00:26;;;;;;;4.60;3.60;;;25.60;39.10;;;;;;5053995;28;20456;-66
2021/07/20 09:03:17;;;;;;;4.45;3.50;;;25.60;39.10;;;;;;5054191;28;20028;-64
2021/07/20 09:06:03;;;;;;;4.75;3.78;;;25.70;39.00;;;;;;5053069;28;20139;-66
2021/07/20 09:08:52;;;;;;;4.15;3.47;;;25.70;39.00;;;;;;5054203;28;20045;-65
2021/07/20 09:11:43;;;;;;;5.03;3.80;;;25.70;39.00;;;;;;5034092;28;20499;-65
2021/07/20 09:14:34;;;;;;;3.88;3.25;;;25.70;39.00;;;;;;5036985;28;20467;-63
2021/07/20 09:17:15;;;;;;;4.28;3.58;;;25.70;39.00;;;;;;5037173;28;20139;-63
2021/07/20 09:19:55;;;;;;;3.30;3.00;;;25.70;39.00;;;;;;5048461;28;20044;-64
2021/07/20 09:22:26;;;;;;;4.68;3.95;;;25.70;39.10;;;;;;5035413;28;20364;-64
2021/07/20 09:25:18;;;;;;;3.45;2.90;;;25.70;39.00;;;;;;5053383;28;20032;-64
2021/07/20 09:28:01;;;;;;;4.53;4.00;;;25.70;39.00;;;;;;5052272;28;20183;-66
2021/07/20 09:30:31;;;;;;;4.00;3.28;;;25.70;39.00;;;;;;5052616;28;20051;-65
2021/07/20 09:33:16;;;;;;;4.18;3.58;;;25.70;38.90;;;;;;5052645;28;20404;-67
2021/07/20 09:35:41;;;;;;;4.05;3.45;;;25.70;38.90;;;;;;5050877;28;20033;-65
2021/07/20 09:38:28;;;;;;;4.13;3.50;;;25.80;39.00;;;;;;5052166;28;20040;-64
2021/07/20 09:41:12;;;;;;;3.95;3.47;;;25.80;38.90;;;;;;5047250;28;20028;-66
2021/07/20 09:43:47;;;;;;;4.20;3.55;;;25.80;38.90;;;;;;5043677;28;20073;-65
2021/07/20 09:46:19;;;;;;;4.57;3.58;;;25.80;38.90;;;;;;5046559;28;20048;-67
2021/07/20 09:49:00;;;;;;;4.55;3.83;;;25.80;38.90;;;;;;5047204;28;20041;-65
2021/07/20 09:51:49;;;;;;;3.92;3.35;;;25.80;38.90;;;;;;5052157;28;20032;-66
2021/07/20 09:54:38;;;;;;;4.70;3.80;;;25.90;38.90;;;;;;5052836;28;20017;-65
2021/07/20 09:57:26;;;;;;;4.18;3.75;;;25.80;38.80;;;;;;5034576;28;20033;-64
2021/07/20 10:00:04;;;;;;;3.85;3.25;;;25.80;38.80;;;;;;5028931;28;20026;-64
2021/07/20 10:02:46;;;;;;;4.38;3.75;;;25.90;38.80;;;;;;5047139;28;20028;-64
2021/07/20 10:05:15;;;;;;;4.43;3.60;;;25.90;38.70;;;;;;5045246;28;20043;-66
2021/07/20 10:08:24;;;;;;;4.00;3.60;;;25.90;38.70;;;;;;5050922;28;20066;-63
2021/07/20 10:11:16;;;;;;;4.13;3.70;;;25.90;38.50;;;;;;5040195;28;20475;-65
2021/07/20 10:14:20;;;;;;;3.95;3.55;;;25.90;38.60;;;;;;5047223;28;20318;-64
2021/07/20 10:17:06;;;;;;;4.25;3.70;;;25.90;38.50;;;;;;5048959;28;20372;-67
2021/07/20 10:19:49;;;;;;;3.88;3.28;;;25.90;38.60;;;;;;5046918;28;20373;-65
2021/07/20 10:22:21;;;;;;;4.30;3.50;;;25.90;38.50;;;;;;5049204;28;20021;-65
2021/07/20 10:24:58;;;;;;;3.63;3.28;;;25.90;38.50;;;;;;5050528;28;20028;-65
2021/07/20 10:27:39;;;;;;;4.88;3.95;;;25.90;38.50;;;;;;5035278;28;20124;-64
2021/07/20 10:30:11;;;;;;;4.53;3.70;;;25.90;38.50;;;;;;5037133;28;20024;-63
2021/07/20 10:33:20;;;;;;;5.32;3.47;;;25.90;38.50;;;;;;5036530;28;20036;-65
2021/07/20 10:36:05;;;;;;;4.03;3.20;;;26.00;38.50;;;;;;5054198;28;20033;-68
2021/07/20 10:38:40;;;;;;;4.28;3.22;;;26.00;38.60;;;;;;5052443;28;20037;-64
2021/07/20 10:41:10;;;;;;;4.03;3.60;;;26.00;38.60;;;;;;5053819;28;20452;-66
2021/07/20 10:43:51;;;;;;;3.92;3.40;;;26.00;38.70;;;;;;5036300;28;20076;-64
2021/07/20 10:46:22;;;;;;;3.97;3.53;;;26.00;38.70;;;;;;5054522;28;20132;-63
2021/07/20 10:48:52;;;;;;;3.92;3.08;;;26.00;38.70;;;;;;5054997;28;20295;-62
2021/07/20 10:51:29;;;;;;;4.38;3.50;;;26.00;38.70;;;;;;5036441;28;20029;-67
2021/07/20 10:54:01;;;;;;;4.82;3.80;;;26.10;38.80;;;;;;5053989;28;20095;-61
2021/07/20 10:56:43;;;;;;;3.50;3.20;;;26.10;38.80;;;;;;5053650;28;20063;-62
2021/07/20 10:59:09;;;;;;;4.25;3.58;;;26.10;38.90;;;;;;5051504;28;20103;-60
2021/07/20 11:02:09;;;;;;;4.00;3.42;;;26.10;38.90;;;;;;5034340;28;20037;-63
2021/07/20 11:04:52;;;;;;;5.65;3.70;;;26.20;39.10;;;;;;5053996;28;20021;-59
2021/07/20 11:07:26;;;;;;;4.68;3.45;;;26.20;39.20;;;;;;5053608;28;20341;-61
2021/07/20 11:09:54;;;;;;;6.38;3.55;;;26.20;39.20;;;;;;5053747;28;20037;-65
2021/07/20 11:12:24;;;;;;;3.70;3.22;;;26.30;39.30;;;;;;5054097;28;20114;-65
2021/07/20 11:14:52;;;;;;;3.92;3.42;;;26.30;39.30;;;;;;5053037;28;20021;-61
2021/07/20 11:17:20;;;;;;;5.40;3.35;;;26.30;39.30;;;;;;5054403;28;20032;-64
2021/07/20 11:19:49;;;;;;;4.07;3.55;;;26.40;39.30;;;;;;5054141;28;20024;-62
2021/07/20 11:22:16;;;;;;;6.88;3.88;;;26.40;39.30;;;;;;5051544;28;20032;-56
2021/07/20 11:24:44;;;;;;;4.22;3.45;;;26.40;39.20;;;;;;5053364;28;20391;-63
2021/07/20 11:27:11;;;;;;;4.10;3.65;;;26.40;39.20;;;;;;5053956;28;20029;-61
2021/07/20 11:29:37;;;;;;;3.90;3.40;;;26.40;39.10;;;;;;5053857;28;20440;-59
2021/07/20 11:32:07;;;;;;;4.30;3.78;;;26.50;39.20;;;;;;5053122;28;20025;-63
2021/07/20 11:34:43;;;;;;;5.07;4.07;;;26.50;39.10;;;;;;5035849;28;20086;-63
2021/07/20 11:37:17;;;;;;;4.15;3.58;;;26.50;39.10;;;;;;5053319;28;20055;-62
2021/07/20 11:40:10;;;;;;;;;;;26.50;39.00;;;;;;5053460;28;20112;-62
2021/07/20 11:42:49;;;;;;;4.50;3.58;;;26.50;39.10;;;;;;5048376;28;19999;-62
2021/07/20 11:45:16;;;;;;;4.18;3.42;;;26.50;39.10;;;;;;5054101;28;20441;-59
2021/07/20 11:47:47;;;;;;;4.38;3.60;;;26.50;39.10;;;;;;5053522;28;20082;-61
2021/07/20 11:50:30;;;;;;;4.35;3.88;;;26.50;39.20;;;;;;5053271;28;20056;-58
2021/07/20 11:53:10;;;;;;;4.18;3.47;;;26.50;39.30;;;;;;5052926;28;20044;-61
2021/07/20 11:55:50;;;;;;;4.60;3.88;;;26.50;39.20;;;;;;5054368;28;20329;-61
2021/07/20 11:58:22;;;;;;;4.40;3.53;;;26.50;39.20;;;;;;5053388;28;20309;-61
2021/07/20 12:01:22;;;;;;;4.40;3.90;;;26.50;39.20;;;;;;5053682;28;20024;-61
2021/07/20 12:04:18;;;;;;;5.53;4.38;;;26.50;39.20;;;;;;5052250;28;20033;-61
2021/07/20 12:07:20;;;;;;;4.70;3.67;;;26.50;39.20;;;;;;5051542;28;20126;-61
2021/07/20 12:10:04;;;;;;;5.18;3.78;;;26.50;39.20;;;;;;5050050;28;20131;-60
2021/07/20 12:12:45;;;;;;;5.10;4.00;;;26.50;39.40;;;;;;5051268;28;20017;-63
2021/07/20 12:15:13;;;;;;;4.75;3.88;;;26.50;39.40;;;;;;5051005;28;20021;-61
2021/07/20 12:17:39;;;;;;;5.18;4.40;;;26.50;39.60;;;;;;5053507;28;20115;-62
2021/07/20 12:20:06;;;;;;;5.65;4.90;;;26.50;39.80;;;;;;5054337;28;20341;-61
2021/07/20 12:22:32;;;;;;;5.40;4.68;;;26.50;39.90;;;;;;5053803;28;20341;-63
2021/07/20 12:25:12;;;;;;;5.13;4.55;;;26.50;39.90;;;;;;5054531;28;20037;-62
2021/07/20 12:27:39;;;;;;;5.43;4.30;;;26.50;39.80;;;;;;5053629;28;20456;-62
2021/07/20 12:30:10;;;;;;;5.57;4.50;;;26.50;39.70;;;;;;5054912;28;20024;-62
2021/07/20 12:32:36;;;;;;;5.38;3.92;;;26.50;39.60;;;;;;5054541;28;20037;-64
2021/07/20 12:35:03;;;;;;;5.53;4.50;;;26.50;39.50;;;;;;5054644;28;20032;-59
2021/07/20 12:37:29;;;;;;;6.68;4.30;;;26.50;39.40;;;;;;5054374;28;20020;-62
2021/07/20 12:39:59;;;;;;;5.30;4.30;;;26.50;39.30;;;;;;5054269;28;20036;-59
2021/07/20 12:42:42;;;;;;;4.97;4.20;;;26.50;39.30;;;;;;5054097;28;20041;-62
2021/07/20 12:45:13;;;;;;;5.20;4.70;;;26.50;39.20;;;;;;5053700;28;20036;-61
2021/07/20 12:47:41;;;;;;;5.13;4.63;;;26.50;39.20;;;;;;5053846;28;20118;-61
2021/07/20 12:50:12;;;;;;;5.50;4.43;;;26.50;39.20;;;;;;5052129;28;20037;-64
2021/07/20 12:52:40;;;;;;;4.55;4.00;;;26.50;39.10;;;;;;5052420;28;20021;-61
2021/07/20 12:55:09;;;;;;;5.60;4.53;;;26.50;39.10;;;;;;5052702;28;20037;-63
2021/07/20 12:57:35;;;;;;;4.72;4.22;;;26.40;39.00;;;;;;5052171;28;20384;-61
2021/07/20 13:00:03;;;;;;;5.20;4.68;;;26.50;39.10;;;;;;5053065;28;20483;-61
2021/07/20 13:02:30;;;;;;;4.68;4.10;;;26.50;39.00;;;;;;5052101;28;20025;-62
2021/07/20 13:04:56;;;;;;;5.28;4.60;;;26.50;39.00;;;;;;5052459;28;20025;-58
2021/07/20 13:07:23;;;;;;;5.22;4.38;;;26.50;39.00;;;;;;5052225;28;20087;-60
2021/07/20 13:09:51;;;;;;;4.57;3.97;;;26.50;39.00;;;;;;5052252;28;20404;-60
2021/07/20 13:12:19;;;;;;;5.18;4.32;;;26.50;39.00;;;;;;5052316;28;20127;-60
2021/07/20 13:14:46;;;;;;;7.15;4.15;;;26.50;39.00;;;;;;5051610;28;20064;-62
2021/07/20 13:17:12;;;;;;;5.13;4.43;;;26.50;39.00;;;;;;5051978;28;20083;-63
2021/07/20 13:19:44;;;;;;;5.50;4.65;;;26.50;39.10;;;;;;5051753;28;20420;-62
2021/07/20 13:22:19;;;;;;;5.18;3.92;;;26.60;39.30;;;;;;5049853;28;20029;-62